Terminal Aerodrome Forecast
Issued by NWS Boston, MA

Home | Current Version | Previous Version | Text Only | Print | Product List | Glossary On
Versions: 1 2 3 4 5 6 7 8 9 10 11 12 13 14 15 16 17 18 19 20 21 22 23
000
FTUS41 KBOX 300207 AAA
TAFBDL
TAF AMD
KBDL 300207Z 3002/3106 10006KT P6SM FEW014 BKN018 OVC020
     FM301300 15004KT P6SM BKN015
     FM302000 17008KT P6SM BKN015
     FM302300 17008KT P6SM VCSH BKN010
     FM310300 16006KT P6SM VCSH OVC008=

USA.gov is the U.S. government's official web portal to all federal, state and local government web resources and services.